createdAt,value
2017-07-28T05:31:23.435Z,86.64
2017-07-28T05:31:48.903Z,86.07
2017-07-28T05:32:14.383Z,86.35
2017-07-28T05:32:39.839Z,86.64
2017-07-28T05:33:05.306Z,86.45
2017-07-28T05:33:30.780Z,86.35
2017-07-28T05:33:56.260Z,86.45
2017-07-28T05:34:21.697Z,86.25
2017-07-28T05:34:47.149Z,86.25
2017-07-28T05:35:12.639Z,86.35
2017-07-28T05:35:38.086Z,86.54
2017-07-28T05:36:03.565Z,86.25
2017-07-28T05:36:29.022Z,85.34
2017-07-28T05:36:54.518Z,86.3
2017-07-28T05:37:19.958Z,86.3
2017-07-28T05:37:45.433Z,85.53
2017-07-28T05:38:10.907Z,85.53
2017-07-28T05:38:36.396Z,85.82
2017-07-28T05:39:01.864Z,85.53
2017-07-28T05:39:27.329Z,85.53
2017-07-28T05:39:52.810Z,85.34
2017-07-28T05:40:18.281Z,85.25
2017-07-28T05:40:43.754Z,85.34
2017-07-28T05:41:09.217Z,84.86
2017-07-28T05:41:34.719Z,84.77
2017-07-28T05:42:00.201Z,84.67
2017-07-28T05:42:25.681Z,84.86
2017-07-28T05:42:51.128Z,85.05
2017-07-28T05:43:16.596Z,84.58
2017-07-28T05:43:42.076Z,84.67
2017-07-28T05:44:07.550Z,84.77
2017-07-28T05:44:33.059Z,84.86
2017-07-28T05:44:58.521Z,84.77
2017-07-28T05:45:23.974Z,84.86
2017-07-28T05:45:49.457Z,84.58
2017-07-28T05:46:14.905Z,84.67
2017-07-28T05:46:40.387Z,84.95
2017-07-28T05:47:05.849Z,85.44
2017-07-28T05:47:31.332Z,85.15
2017-07-28T05:47:56.813Z,85.05
2017-07-28T05:48:22.290Z,85.05
2017-07-28T05:48:47.742Z,84.86
2017-07-28T05:49:13.202Z,84.67
2017-07-28T05:49:38.678Z,84.09
2017-07-28T05:50:04.184Z,84.19
2017-07-28T05:50:29.643Z,84.38
2017-07-28T05:50:55.136Z,83.71
2017-07-28T05:51:20.627Z,83.91
2017-07-28T05:51:46.110Z,83.42
2017-07-28T05:52:11.608Z,83.33
2017-07-28T05:52:37.118Z,83.75
2017-07-28T05:53:02.614Z,83.33
2017-07-28T05:53:28.090Z,83.52
2017-07-28T05:53:53.559Z,83.27
2017-07-28T05:54:19.061Z,83.61
2017-07-28T05:54:44.539Z,83.33
2017-07-28T05:55:09.992Z,83.27
2017-07-28T05:55:35.478Z,83.23
2017-07-28T05:56:00.945Z,83.27
2017-07-28T05:56:26.426Z,83.23
2017-07-28T05:56:51.934Z,83.18
2017-07-28T05:57:17.438Z,83.56
2017-07-28T05:57:42.909Z,84.33
2017-07-28T05:58:08.357Z,84.23
2017-07-28T05:58:33.813Z,84.04
2017-07-28T05:58:59.302Z,84.23
2017-07-28T05:59:24.821Z,83.94
2017-07-28T05:59:50.270Z,83.65
2017-07-28T06:00:15.734Z,83.75
2017-07-28T06:00:41.214Z,83.75
2017-07-28T06:01:06.679Z,83.75
2017-07-28T06:01:32.162Z,83.37
2017-07-28T06:01:57.658Z,83.18
2017-07-28T06:02:23.123Z,83.37
2017-07-28T06:02:48.569Z,83.37
2017-07-28T06:03:13.995Z,83.65
2017-07-28T06:03:39.467Z,83.27
2017-07-28T06:04:04.940Z,83.27
2017-07-28T06:04:30.423Z,83.27
2017-07-28T06:04:55.876Z,83.37
2017-07-28T06:05:21.346Z,82.79
2017-07-28T06:05:46.815Z,82.89
2017-07-28T06:06:12.275Z,82.89
2017-07-28T06:06:37.754Z,82.51
2017-07-28T06:07:03.241Z,82.79
2017-07-28T06:07:28.693Z,82.6
2017-07-28T06:07:54.218Z,82.79
2017-07-28T06:08:19.703Z,82.7
2017-07-28T06:08:45.194Z,82.64
2017-07-28T06:09:10.656Z,83.12
2017-07-28T06:09:36.152Z,83.03
2017-07-28T06:10:01.623Z,82.89
2017-07-28T06:10:27.108Z,82.31
2017-07-28T06:10:52.565Z,82.64
2017-07-28T06:11:18.049Z,82.45
2017-07-28T06:11:43.521Z,82.45
2017-07-28T06:12:09.004Z,83.12
2017-07-28T06:12:34.503Z,82.84
2017-07-28T06:12:59.946Z,82.26
2017-07-28T06:13:25.427Z,82.35
2017-07-28T06:13:50.892Z,82.26
2017-07-28T06:14:16.337Z,82.64
2017-07-28T06:14:41.837Z,82.35
2017-07-28T06:15:07.316Z,82.16
2017-07-28T06:15:32.784Z,82.64
2017-07-28T06:15:58.251Z,82.35
2017-07-28T06:16:23.711Z,82.26
2017-07-28T06:16:49.199Z,82.35
2017-07-28T06:17:14.682Z,82.16
2017-07-28T06:17:40.159Z,82.35
2017-07-28T06:18:05.627Z,82.26
2017-07-28T06:18:31.141Z,81.97
2017-07-28T06:18:56.628Z,81.97
2017-07-28T06:19:22.110Z,82.26
2017-07-28T06:19:47.572Z,82.64
2017-07-28T06:20:13.070Z,81.97
2017-07-28T06:20:38.537Z,82.1
2017-07-28T06:21:04.005Z,82.01
2017-07-28T06:21:29.482Z,82.01
2017-07-28T06:21:54.972Z,81.72
2017-07-28T06:23:03.651Z,81.82
2017-07-28T06:23:29.132Z,81.92
2017-07-28T06:23:54.601Z,81.63
2017-07-28T06:24:20.097Z,81.82
2017-07-28T06:24:45.555Z,81.15
2017-07-28T06:25:11.028Z,81.15
2017-07-28T06:25:36.571Z,80.71
2017-07-28T06:26:02.039Z,80.71
2017-07-28T06:26:27.523Z,80.51
2017-07-28T06:26:52.994Z,80.51
2017-07-28T06:27:18.468Z,80.42
2017-07-28T06:27:43.921Z,80.42
2017-07-28T06:28:09.406Z,80.13
2017-07-28T06:28:34.910Z,80.04
2017-07-28T06:29:00.383Z,79.6
2017-07-28T06:29:25.818Z,79.21
2017-07-28T06:29:51.300Z,78.53
2017-07-28T06:30:16.775Z,78.63
2017-07-28T06:30:42.246Z,78.44
2017-07-28T06:31:07.749Z,78.15
2017-07-28T06:31:33.220Z,78.83
2017-07-28T06:31:58.689Z,78.44
2017-07-28T06:32:24.147Z,77.48
2017-07-28T06:32:49.636Z,77.38
2017-07-28T06:33:15.089Z,77.58
2017-07-28T06:33:40.570Z,77.67
2017-07-28T06:34:06.041Z,77.48
2017-07-28T06:34:31.526Z,77.76
2017-07-28T06:34:56.991Z,77.96
2017-07-28T06:35:22.461Z,77.48
2017-07-28T06:35:47.936Z,78.06
2017-07-28T06:36:13.390Z,78.06
2017-07-28T06:36:38.850Z,78.15
2017-07-28T06:37:04.344Z,78.09
2017-07-28T06:37:29.829Z,78.15
2017-07-28T06:37:55.291Z,78.06
2017-07-28T06:38:20.774Z,78
2017-07-28T06:38:46.247Z,77.51
2017-07-28T06:39:11.735Z,77.51
2017-07-28T06:39:37.195Z,77.33
2017-07-28T06:40:02.655Z,77.51
2017-07-28T06:40:28.108Z,77.42
2017-07-28T06:40:53.567Z,77.33
2017-07-28T06:41:19.048Z,77.04
2017-07-28T06:41:44.519Z,76.94
2017-07-28T06:42:10.012Z,77.13
2017-07-28T06:42:35.532Z,76.84
2017-07-28T06:43:01.025Z,76.84
2017-07-28T06:43:26.492Z,77.04
2017-07-28T06:43:51.972Z,77.13
2017-07-28T06:44:17.451Z,76.84
2017-07-28T06:44:42.910Z,76.75
2017-07-28T06:45:08.418Z,77.04
2017-07-28T06:45:33.873Z,76.65
2017-07-28T06:45:59.318Z,76.56
2017-07-28T06:46:24.772Z,76.46
2017-07-28T06:46:50.257Z,76.75
2017-07-28T06:47:15.729Z,76.36
2017-07-28T06:47:41.196Z,76.26
2017-07-28T06:48:06.656Z,76.17
2017-07-28T06:48:32.154Z,76.56
2017-07-28T06:48:57.610Z,76.36
2017-07-28T06:49:23.099Z,76.26
2017-07-28T06:49:48.575Z,75.79
2017-07-28T06:50:14.079Z,76.26
2017-07-28T06:50:39.534Z,75.79
2017-07-28T06:51:05.005Z,75.59
2017-07-28T06:51:30.478Z,75.59
2017-07-28T06:51:55.954Z,75.59
2017-07-28T06:52:21.464Z,76.07
2017-07-28T06:52:46.955Z,75.88
2017-07-28T06:53:12.442Z,76.26
2017-07-28T06:53:37.873Z,76.17
2017-07-28T06:54:03.319Z,76.26
2017-07-28T06:54:28.793Z,76.17
2017-07-28T06:54:54.288Z,76.26
2017-07-28T06:55:19.744Z,76.56
2017-07-28T06:55:45.214Z,76.84
2017-07-28T06:56:10.657Z,76.17
2017-07-28T06:56:36.126Z,76.26
2017-07-28T06:57:01.630Z,76.17
2017-07-28T06:57:27.083Z,76.07
2017-07-28T06:57:52.561Z,75.98
2017-07-28T06:58:18.051Z,76.17
2017-07-28T06:58:43.529Z,76.36
2017-07-28T06:59:08.999Z,75.59
2017-07-28T06:59:34.499Z,75.49
2017-07-28T06:59:59.963Z,75.82
2017-07-28T07:00:25.423Z,75.49
2017-07-28T07:00:50.909Z,76.07
2017-07-28T07:01:16.385Z,76.4
2017-07-28T07:01:41.861Z,76.4
2017-07-28T07:02:07.313Z,75.98
2017-07-28T07:02:32.776Z,76.4
2017-07-28T07:02:58.246Z,76.01
2017-07-28T07:03:23.705Z,76.26
2017-07-28T07:03:49.212Z,76.01
2017-07-28T07:04:14.671Z,75.98
2017-07-28T07:04:40.157Z,75.82
2017-07-28T07:05:05.635Z,76.11
2017-07-28T07:05:31.149Z,76.11
2017-07-28T07:06:44.943Z,75.82
2017-07-28T07:07:10.416Z,76.4
2017-07-28T07:07:35.909Z,75.73
2017-07-28T07:08:01.386Z,75.92
2017-07-28T07:08:26.851Z,76.01
2017-07-28T07:08:52.354Z,75.54
2017-07-28T07:09:17.829Z,75.92
2017-07-28T07:09:43.296Z,75.44
2017-07-28T07:10:08.765Z,75.54
2017-07-28T07:10:34.223Z,75.63
2017-07-28T07:10:59.710Z,75.24
2017-07-28T07:11:25.177Z,75.24
2017-07-28T07:11:50.659Z,75.05
2017-07-28T07:12:16.117Z,73.99
2017-07-28T07:12:41.579Z,74.09
2017-07-28T07:13:07.100Z,73.99
2017-07-28T07:13:32.598Z,74.48
2017-07-28T07:13:58.085Z,74.48
2017-07-28T07:14:23.549Z,74.67
2017-07-28T07:14:49.003Z,74.29
2017-07-28T07:15:14.483Z,74.48
2017-07-28T07:15:39.958Z,74.96
2017-07-28T07:16:05.455Z,74.86
2017-07-28T07:16:30.922Z,74.96
2017-07-28T07:16:56.376Z,75.24
2017-07-28T07:17:21.872Z,75.15
2017-07-28T07:17:47.388Z,75.15
2017-07-28T07:18:12.852Z,75.73
2017-07-28T07:18:38.356Z,75.15
2017-07-28T07:19:03.858Z,75.44
2017-07-28T07:19:29.320Z,75.24
2017-07-28T07:19:54.800Z,75.15
2017-07-28T07:20:20.275Z,74.86
2017-07-28T07:20:45.749Z,75.73
2017-07-28T07:21:11.232Z,75.59
2017-07-28T07:21:36.695Z,75.79
2017-07-28T07:22:02.177Z,75.59
2017-07-28T07:22:27.623Z,75.63
2017-07-28T07:22:53.067Z,75.63
2017-07-28T07:23:18.575Z,75.92
2017-07-28T07:23:44.057Z,75.54
2017-07-28T07:24:09.543Z,75.82
2017-07-28T07:24:35.010Z,76.01
2017-07-28T07:25:00.468Z,76.01
2017-07-28T07:25:25.946Z,75.82
2017-07-28T07:25:51.435Z,75.63
2017-07-28T07:26:16.924Z,75.92
2017-07-28T07:26:42.366Z,75.44
2017-07-28T07:27:07.874Z,75.44
2017-07-28T07:27:33.317Z,75.73
2017-07-28T07:27:58.784Z,75.44
2017-07-28T07:28:24.259Z,75.73
2017-07-28T07:28:49.737Z,75.82
2017-07-28T07:29:15.226Z,75.54
2017-07-28T07:29:40.709Z,75.34
2017-07-28T07:30:06.187Z,75.82
2017-07-28T07:30:31.644Z,75.54
2017-07-28T07:30:57.161Z,75.82
2017-07-28T07:31:22.626Z,76.01
2017-07-28T07:31:48.109Z,75.92
2017-07-28T07:32:13.586Z,75.92
2017-07-28T07:32:39.065Z,75.73
2017-07-28T07:33:04.522Z,75.63
2017-07-28T07:33:29.972Z,75.92
2017-07-28T07:33:55.454Z,75.54
2017-07-28T07:34:20.925Z,75.73
2017-07-28T07:34:46.401Z,75.82
2017-07-28T07:35:11.862Z,75.92
2017-07-28T07:35:37.315Z,76.11
2017-07-28T07:36:02.822Z,75.63
2017-07-28T07:36:28.286Z,76.01
2017-07-28T07:36:53.757Z,75.44
2017-07-28T07:37:19.239Z,75.63
2017-07-28T07:37:44.736Z,75.44
2017-07-28T07:38:10.223Z,75.15
2017-07-28T07:38:35.700Z,75.24
2017-07-28T07:39:01.142Z,74.86
2017-07-28T07:39:26.617Z,75.73
2017-07-28T07:39:52.098Z,75.24
2017-07-28T07:40:17.641Z,75.57
2017-07-28T07:40:43.100Z,75.44
2017-07-28T07:41:08.556Z,75.48
2017-07-28T07:41:34.020Z,75.19
2017-07-28T07:41:59.482Z,75.48
2017-07-28T07:42:24.984Z,75.48
2017-07-28T07:42:50.443Z,75.28
2017-07-28T07:43:15.917Z,75.19
2017-07-28T07:43:41.398Z,74.99
2017-07-28T07:44:06.866Z,74.71
2017-07-28T07:44:32.373Z,74.8
2017-07-28T07:44:57.871Z,74.71
2017-07-28T07:45:23.331Z,74.99
2017-07-28T07:45:48.807Z,74.8
2017-07-28T07:46:14.308Z,75.09
2017-07-28T07:46:39.755Z,74.71
2017-07-28T07:47:05.219Z,75.19
2017-07-28T07:47:30.716Z,74.8
2017-07-28T07:48:29.217Z,74.71
2017-07-28T07:48:54.674Z,74.32
2017-07-28T07:49:20.151Z,74.38
2017-07-28T07:49:45.614Z,74.67
2017-07-28T07:50:11.089Z,74.67
2017-07-28T07:50:36.583Z,74.71
2017-07-28T07:51:02.044Z,74.96
2017-07-28T07:51:27.515Z,75.34
2017-07-28T07:51:53.024Z,75.24
2017-07-28T07:52:18.485Z,75.24
2017-07-28T07:52:43.925Z,75.24
2017-07-28T07:53:09.409Z,75.15
2017-07-28T07:53:34.847Z,75.15
2017-07-28T07:54:00.299Z,75.24
2017-07-28T07:54:25.771Z,75.44
2017-07-28T07:54:51.216Z,75.34
2017-07-28T07:55:16.687Z,75.24
2017-07-28T07:55:42.160Z,75.73
2017-07-28T07:56:07.630Z,75.92
2017-07-28T07:56:33.141Z,76.01
2017-07-28T07:56:58.553Z,75.63
2017-07-28T07:57:24.019Z,76.01
2017-07-28T07:57:49.491Z,76.01
2017-07-28T07:58:14.948Z,76.01
2017-07-28T07:58:40.450Z,75.92
2017-07-28T07:59:05.944Z,75.92
2017-07-28T07:59:31.391Z,75.82
2017-07-28T07:59:56.867Z,76.11
2017-07-28T08:00:22.358Z,76.11
2017-07-28T08:00:47.809Z,76.01
2017-07-28T08:01:13.286Z,75.63
2017-07-28T08:01:38.748Z,76.21
2017-07-28T08:02:04.238Z,75.82
2017-07-28T08:02:29.723Z,75.82
2017-07-28T08:02:55.181Z,75.86
2017-07-28T08:03:20.676Z,75.63
2017-07-28T08:03:46.120Z,75.38
2017-07-28T08:04:11.582Z,75.28
2017-07-28T08:04:37.040Z,75.48
2017-07-28T08:05:02.543Z,74.99
2017-07-28T08:05:28.025Z,74.8
2017-07-28T08:05:53.551Z,74.71
2017-07-28T08:06:18.994Z,74.9
2017-07-28T08:06:44.477Z,74.9
2017-07-28T08:07:09.929Z,75.09
2017-07-28T08:07:35.394Z,75.19
2017-07-28T08:08:00.878Z,74.99
2017-07-28T08:08:26.395Z,75.09
2017-07-28T08:08:51.870Z,75.13
2017-07-28T08:09:17.382Z,74.61
2017-07-28T08:09:42.842Z,74.71
2017-07-28T08:10:08.331Z,74.26
2017-07-28T08:10:33.819Z,74.71
2017-07-28T08:10:59.302Z,74.45
2017-07-28T08:11:24.798Z,74.26
2017-07-28T08:11:50.298Z,74.84
2017-07-28T08:12:15.793Z,74.84
2017-07-28T08:12:41.280Z,74.84
2017-07-28T08:13:06.786Z,74.55
2017-07-28T08:13:32.275Z,74.26
2017-07-28T08:13:57.781Z,74.45
2017-07-28T08:14:23.251Z,74.36
2017-07-28T08:14:48.701Z,74.13
2017-07-28T08:15:14.175Z,74.45
2017-07-28T08:15:39.654Z,74.41
2017-07-28T08:16:05.135Z,74.22
2017-07-28T08:16:30.612Z,74.32
2017-07-28T08:16:56.137Z,74.61
2017-07-28T08:17:21.617Z,74.51
2017-07-28T08:17:47.083Z,74.41
2017-07-28T08:18:12.564Z,74.32
2017-07-28T08:18:38.075Z,74.32
2017-07-28T08:19:03.536Z,74.71
2017-07-28T08:19:28.984Z,74.41
2017-07-28T08:19:54.446Z,74.71
2017-07-28T08:20:19.949Z,74.71
2017-07-28T08:20:45.402Z,75.09
2017-07-28T08:21:10.855Z,74.99
2017-07-28T08:21:36.330Z,74.61
2017-07-28T08:22:01.804Z,74.32
2017-07-28T08:22:27.291Z,74.51
2017-07-28T08:22:52.752Z,74.41
2017-07-28T08:23:18.203Z,74.32
2017-07-28T08:23:43.663Z,74.51
2017-07-28T08:24:09.121Z,74.71
2017-07-28T08:24:34.591Z,74.61
2017-07-28T08:25:00.068Z,74.41
2017-07-28T08:25:25.528Z,73.84
2017-07-28T08:25:50.978Z,74.13
2017-07-28T08:26:16.433Z,73.84
2017-07-28T08:26:41.909Z,74.03
2017-07-28T08:27:07.389Z,74.03
2017-07-28T08:27:32.873Z,74.03
2017-07-28T08:27:58.369Z,74.03
2017-07-28T08:28:23.812Z,74.13
2017-07-28T08:28:49.282Z,74.03
2017-07-28T08:29:14.759Z,73.94
2017-07-28T08:29:40.232Z,74.03
2017-07-28T08:30:05.717Z,74.03
2017-07-28T08:30:31.182Z,74.03
2017-07-28T08:30:56.641Z,74.22
2017-07-28T08:31:22.121Z,74.03
2017-07-28T08:31:47.602Z,73.84
2017-07-28T08:32:13.083Z,74.03
2017-07-28T08:32:38.552Z,73.94
2017-07-28T08:33:04.055Z,74.51
2017-07-28T08:33:29.538Z,74.22
2017-07-28T08:33:54.988Z,74.22
2017-07-28T08:34:20.458Z,74.32
2017-07-28T08:34:45.954Z,74.13
2017-07-28T08:35:11.406Z,74.71
2017-07-28T08:35:36.869Z,74.51
2017-07-28T08:36:02.341Z,74.32
2017-07-28T08:36:27.803Z,74.32
2017-07-28T08:36:53.251Z,74.41
2017-07-28T08:37:18.714Z,74.41
2017-07-28T08:37:44.175Z,73.84
2017-07-28T08:38:09.675Z,74.03
2017-07-28T08:38:35.133Z,74.13
2017-07-28T08:39:00.646Z,74.13
2017-07-28T08:39:26.096Z,74.13
2017-07-28T08:39:51.565Z,74.13
2017-07-28T08:40:17.060Z,73.65
2017-07-28T08:40:42.541Z,73.26
2017-07-28T08:41:08.006Z,73.16
2017-07-28T08:41:33.471Z,73.46
2017-07-28T08:41:58.912Z,73.55
2017-07-28T08:42:24.396Z,73.55
2017-07-28T08:42:49.861Z,73.16
2017-07-28T08:43:15.343Z,73.55
2017-07-28T08:43:40.792Z,73.94
2017-07-28T08:44:06.259Z,73.55
2017-07-28T08:44:31.707Z,73.26
2017-07-28T08:44:57.194Z,73.74
2017-07-28T08:45:22.688Z,73.26
2017-07-28T08:45:48.141Z,73.36
2017-07-28T08:46:13.622Z,72.97
2017-07-28T08:46:39.114Z,72.91
2017-07-28T08:47:04.587Z,72.91
2017-07-28T08:47:30.049Z,73.01
2017-07-28T08:47:55.529Z,72.81
2017-07-28T08:48:21.001Z,73.2
2017-07-28T08:48:46.475Z,72.33
2017-07-28T08:49:11.957Z,73.2
2017-07-28T08:49:37.402Z,72.91
2017-07-28T08:50:02.899Z,72.91
2017-07-28T08:50:28.366Z,72.72
2017-07-28T08:50:53.840Z,72.33
2017-07-28T08:51:19.279Z,72.63
2017-07-28T08:51:44.732Z,73.01
2017-07-28T08:52:10.230Z,72.53
2017-07-28T08:52:35.658Z,72.43
2017-07-28T08:53:01.132Z,72.72
2017-07-28T08:53:26.609Z,72.33
2017-07-28T08:53:52.054Z,72.63
2017-07-28T08:54:17.546Z,72.43
2017-07-28T08:54:42.970Z,72.53
2017-07-28T08:55:08.418Z,72.33
2017-07-28T08:55:33.892Z,71.95
2017-07-28T08:55:59.347Z,72.24
2017-07-28T08:56:24.776Z,71.95
2017-07-28T08:56:50.223Z,72.63
2017-07-28T08:57:15.698Z,72.43
2017-07-28T08:57:41.136Z,72.24
2017-07-28T08:58:06.595Z,71.95
2017-07-28T08:58:32.076Z,72.53
2017-07-28T08:58:57.547Z,72.63
2017-07-28T08:59:23.061Z,72.53
2017-07-28T08:59:48.517Z,73.1
2017-07-28T09:00:14.013Z,73.3
2017-07-28T09:00:39.458Z,72.91
2017-07-28T09:01:04.921Z,72.81
2017-07-28T09:01:30.366Z,72.91
2017-07-28T09:01:55.844Z,73.01
2017-07-28T09:02:21.302Z,73.1
2017-07-28T09:02:46.750Z,73.1
2017-07-28T09:03:12.200Z,73.3
2017-07-28T09:03:37.693Z,73.49
2017-07-28T09:04:03.118Z,73.2
2017-07-28T09:04:28.626Z,73.1
2017-07-28T09:04:54.079Z,72.81
2017-07-28T09:05:19.524Z,73.1
2017-07-28T09:05:44.996Z,72.81
2017-07-28T09:06:10.442Z,73.01
2017-07-28T09:06:35.935Z,72.63
2017-07-28T09:07:01.426Z,72.43
2017-07-28T09:07:26.917Z,72.53
2017-07-28T09:07:52.350Z,72.24
2017-07-28T09:08:17.810Z,72.81
2017-07-28T09:08:43.299Z,72.72
2017-07-28T09:09:08.745Z,72.91
2017-07-28T09:09:34.216Z,72.72
2017-07-28T09:09:59.743Z,73.01
2017-07-28T09:10:25.143Z,73.1
2017-07-28T09:10:50.665Z,73.3
2017-07-28T09:11:16.076Z,73.33
2017-07-28T09:11:41.584Z,73.24
2017-07-28T09:12:07.025Z,73.24
2017-07-28T09:12:32.463Z,72.85
2017-07-28T09:12:57.946Z,72.85
2017-07-28T09:13:23.422Z,72.37
2017-07-28T09:13:48.863Z,72.37
2017-07-28T09:14:14.439Z,72.75
2017-07-28T09:14:39.763Z,72.27
2017-07-28T09:15:05.209Z,71.7
2017-07-28T09:15:30.732Z,71.06
2017-07-28T09:15:56.211Z,70.76
2017-07-28T09:16:21.643Z,70.96
2017-07-28T09:16:47.148Z,71.44
2017-07-28T09:17:12.596Z,71.06
2017-07-28T09:17:38.063Z,71.44
2017-07-28T09:18:03.520Z,70.86
2017-07-28T09:18:29.002Z,70.48
2017-07-28T09:18:54.450Z,70.76
2017-07-28T09:19:19.923Z,70.76
2017-07-28T09:19:45.395Z,70.96
2017-07-28T09:20:10.888Z,70.67
2017-07-28T09:20:36.315Z,70.19
2017-07-28T09:21:01.789Z,70.38
2017-07-28T09:21:27.225Z,70.19
2017-07-28T09:21:52.688Z,70.28
2017-07-28T09:22:18.197Z,69.61
2017-07-28T09:22:43.645Z,69.51
2017-07-28T09:23:09.091Z,69.71
2017-07-28T09:23:34.587Z,69.9
2017-07-28T09:24:00.061Z,69.74
2017-07-28T09:24:25.525Z,70.03
2017-07-28T09:24:50.958Z,69.71
2017-07-28T09:25:16.428Z,69.71
2017-07-28T09:25:41.869Z,69.64
2017-07-28T09:26:07.333Z,69.84
2017-07-28T09:26:32.805Z,69.74
2017-07-28T09:26:58.272Z,69.8
2017-07-28T09:27:23.714Z,69.71
2017-07-28T09:27:49.159Z,69.8
2017-07-28T09:28:14.611Z,69.26
2017-07-28T09:28:40.067Z,69.51
2017-07-28T09:29:05.524Z,68.97
2017-07-28T09:29:30.993Z,68.87
2017-07-28T09:29:56.488Z,69.64
2017-07-28T09:30:21.944Z,68.87
2017-07-28T09:30:47.396Z,69.26
2017-07-28T09:31:12.835Z,69.35
2017-07-28T09:31:38.293Z,69.07
2017-07-28T09:32:03.745Z,69.07
2017-07-28T09:32:29.226Z,69.16
2017-07-28T09:32:54.718Z,69.35
2017-07-28T09:33:20.177Z,69.26
2017-07-28T09:33:45.660Z,68.97
2017-07-28T09:34:11.104Z,68.29
2017-07-28T09:34:36.584Z,68.29
2017-07-28T09:35:02.058Z,67.52
2017-07-28T09:35:27.501Z,67.71
2017-07-28T09:35:52.965Z,67.62
2017-07-28T09:36:18.416Z,68.1
2017-07-28T09:36:43.971Z,68.59
2017-07-28T09:37:09.362Z,68.1
2017-07-28T09:37:34.823Z,68.16
2017-07-28T09:38:00.274Z,68.01
2017-07-28T09:38:25.777Z,68.1
2017-07-28T09:38:51.219Z,68.29
2017-07-28T09:39:16.683Z,68.39
2017-07-28T09:39:42.150Z,67.71
2017-07-28T09:40:07.627Z,67.52
2017-07-28T09:40:33.064Z,67.23
2017-07-28T09:40:58.531Z,66.94
2017-07-28T09:41:23.986Z,66.85
2017-07-28T09:41:49.437Z,67.52
2017-07-28T09:42:14.922Z,67.62
2017-07-28T09:42:40.385Z,67.81
2017-07-28T09:43:05.853Z,67.68
2017-07-28T09:43:31.338Z,67.62
2017-07-28T09:43:56.815Z,67.97
2017-07-28T09:44:22.333Z,68.16
2017-07-28T09:44:47.796Z,68.55
2017-07-28T09:45:13.239Z,68.26
2017-07-28T09:45:38.727Z,67.78
2017-07-28T09:46:04.216Z,67.78
2017-07-28T09:46:29.690Z,67.78
2017-07-28T09:46:55.147Z,67.97
2017-07-28T09:47:20.629Z,68.26
2017-07-28T09:47:46.099Z,68.65
2017-07-28T09:48:11.544Z,68.74
2017-07-28T09:48:37.013Z,68.74
2017-07-28T09:49:02.477Z,69.03
2017-07-28T09:49:27.929Z,68.84
2017-07-28T09:49:53.402Z,69.13
2017-07-28T09:50:18.894Z,69.42
2017-07-28T09:50:44.350Z,69.13
2017-07-28T09:51:09.794Z,69.23
2017-07-28T09:51:35.248Z,69.61
2017-07-28T09:52:00.719Z,69.32
2017-07-28T09:52:26.269Z,69.13
2017-07-28T09:52:51.783Z,69.26
2017-07-28T09:53:17.249Z,69.35
2017-07-28T09:53:42.684Z,68.77
2017-07-28T09:54:08.183Z,69.2
2017-07-28T09:54:33.634Z,68.91
2017-07-28T09:54:59.063Z,68.04
2017-07-28T09:55:24.571Z,66.3
2017-07-28T09:55:50.068Z,66.2
2017-07-28T09:56:15.529Z,66.01
2017-07-28T09:56:40.960Z,65.34
2017-07-28T09:57:06.439Z,64.95
2017-07-28T09:57:31.915Z,65.05
2017-07-28T09:57:57.368Z,65.14
2017-07-28T09:58:22.815Z,64.47
2017-07-28T09:58:48.294Z,63.79
2017-07-28T09:59:13.794Z,64.21
2017-07-28T09:59:39.288Z,63.7
2017-07-28T10:00:04.747Z,63.63
2017-07-28T10:00:30.208Z,63.79
2017-07-28T10:00:55.654Z,63.7
2017-07-28T10:01:21.129Z,64.11
2017-07-28T10:01:46.618Z,64.47
2017-07-28T10:02:12.071Z,63.89
2017-07-28T10:02:37.521Z,64.08
2017-07-28T10:03:02.984Z,64.28
2017-07-28T10:03:28.460Z,64.18
2017-07-28T10:03:53.909Z,63.98
2017-07-28T10:04:19.374Z,64.76
2017-07-28T10:04:44.854Z,64.47
2017-07-28T10:05:10.293Z,64.76
2017-07-28T10:05:35.784Z,64.95
2017-07-28T10:06:01.268Z,65.05
2017-07-28T10:06:26.759Z,65.05
2017-07-28T10:06:52.201Z,64.95
2017-07-28T10:07:17.659Z,65.14
2017-07-28T10:07:43.105Z,65.34
2017-07-28T10:08:08.569Z,65.14
2017-07-28T10:08:34.041Z,64.56
2017-07-28T10:08:59.505Z,64.86
2017-07-28T10:09:24.963Z,64.47
2017-07-28T10:09:50.430Z,64.47
2017-07-28T10:10:15.915Z,64.47
2017-07-28T10:10:41.341Z,64.47
2017-07-28T10:11:06.836Z,64.37
2017-07-28T10:11:32.267Z,64.47
2017-07-28T10:11:57.729Z,64.76
2017-07-28T10:12:23.207Z,64.76
2017-07-28T10:12:48.633Z,65.43
2017-07-28T10:13:14.161Z,65.14
2017-07-28T10:13:39.642Z,65.34
2017-07-28T10:14:05.050Z,65.34
2017-07-28T10:14:30.526Z,65.43
2017-07-28T10:14:55.973Z,65.34
2017-07-28T10:15:21.441Z,65.05
2017-07-28T10:15:46.904Z,64.47
2017-07-28T10:16:12.348Z,64.18
2017-07-28T10:16:37.809Z,63.7
2017-07-28T10:17:03.279Z,63.79
2017-07-28T10:17:28.773Z,64.31
2017-07-28T10:17:54.247Z,64.4
2017-07-28T10:18:19.692Z,63.92
2017-07-28T10:18:45.148Z,64.11
2017-07-28T10:19:10.604Z,63.82
2017-07-28T10:19:36.056Z,63.82
2017-07-28T10:20:01.558Z,62.95
2017-07-28T10:20:26.984Z,62.47
2017-07-28T10:20:52.452Z,62.57
2017-07-28T10:21:17.923Z,62.37
2017-07-28T10:21:43.395Z,62.18
2017-07-28T10:22:08.868Z,62.28
2017-07-28T10:22:34.323Z,61.92
2017-07-28T10:22:59.788Z,62.21
2017-07-28T10:23:25.257Z,61.92
2017-07-28T10:23:50.719Z,61.73
2017-07-28T10:24:16.186Z,61.54
2017-07-28T10:24:41.653Z,61.73
2017-07-28T10:25:07.114Z,61.25
2017-07-28T10:25:32.544Z,61.63
2017-07-28T10:25:58.001Z,62.02
2017-07-28T10:26:23.452Z,62.21
2017-07-28T10:26:48.930Z,61.44
2017-07-28T10:27:14.357Z,61.25
2017-07-28T10:27:39.824Z,60.69
2017-07-28T10:28:05.283Z,60.96
2017-07-28T10:28:30.736Z,60.11
2017-07-28T10:28:56.192Z,59.53
2017-07-28T10:29:21.677Z,59.34
2017-07-28T10:29:47.181Z,58.57
2017-07-28T10:30:12.606Z,58.67
2017-07-28T10:30:38.110Z,58.76
2017-07-28T10:31:03.566Z,58.76
2017-07-28T10:31:29.002Z,58.37
2017-07-28T10:31:54.476Z,58.28
2017-07-28T10:32:19.947Z,58.21
2017-07-28T10:32:45.384Z,58.5
2017-07-28T10:33:10.903Z,58.31
2017-07-28T10:33:36.350Z,58.31
2017-07-28T10:34:01.785Z,58.5
2017-07-28T10:34:27.254Z,58.12
2017-07-28T10:34:52.679Z,58.21
2017-07-28T10:35:18.146Z,57.34
2017-07-28T10:35:43.591Z,56.95
2017-07-28T10:36:09.038Z,57.05
2017-07-28T10:36:34.524Z,56.95
2017-07-28T10:36:59.962Z,56.76
2017-07-28T10:37:25.410Z,56.76
2017-07-28T10:37:50.888Z,56.47
2017-07-28T10:38:16.349Z,56.95
2017-07-28T10:38:41.811Z,56.47
2017-07-28T10:39:07.281Z,56.67
2017-07-28T10:39:32.727Z,56.28
2017-07-28T10:39:58.205Z,57.05
2017-07-28T10:40:23.637Z,57.05
2017-07-28T10:40:49.101Z,57.34
2017-07-28T10:41:14.539Z,57.24
2017-07-28T10:41:40.029Z,56.76
2017-07-28T10:42:05.497Z,56.86
2017-07-28T10:42:30.964Z,57.05
2017-07-28T10:42:56.420Z,56.95
2017-07-28T10:43:21.892Z,56.95
2017-07-28T10:43:47.336Z,57.24
2017-07-28T10:44:12.801Z,57.15
2017-07-28T10:44:38.264Z,56.76
2017-07-28T10:45:03.701Z,56.28
2017-07-28T10:45:29.165Z,56.37
2017-07-28T10:45:54.638Z,56.28
2017-07-28T10:46:20.117Z,56.86
2017-07-28T10:46:45.555Z,56.86
2017-07-28T10:47:11.019Z,57.44
2017-07-28T10:47:36.489Z,56.95
2017-07-28T10:48:01.961Z,57.44
2017-07-28T10:48:27.430Z,57.15
2017-07-28T10:48:52.973Z,57.34
2017-07-28T10:49:18.537Z,57.44
2017-07-28T10:49:43.973Z,57.34
2017-07-28T10:50:09.458Z,57.34
2017-07-28T10:50:34.931Z,57.54
2017-07-28T10:51:00.392Z,57.44
2017-07-28T10:51:25.913Z,57.15
2017-07-28T10:51:51.341Z,57.31
2017-07-28T10:52:16.823Z,57.54
2017-07-28T10:52:42.243Z,57.41
2017-07-28T10:53:07.681Z,58.02
2017-07-28T10:53:33.208Z,58.18
2017-07-28T10:53:58.697Z,58.02
2017-07-28T10:54:24.124Z,58.18
2017-07-28T10:54:49.621Z,58.28
2017-07-28T10:55:15.136Z,58.57
2017-07-28T10:55:40.612Z,58.8
2017-07-28T10:56:06.033Z,58.67
2017-07-28T10:56:31.511Z,58.18
2017-07-28T10:56:56.987Z,57.21
2017-07-28T10:57:22.445Z,56.35
2017-07-28T10:57:47.921Z,56.35
2017-07-28T10:58:13.397Z,56.73
2017-07-28T10:58:38.820Z,56.93
2017-07-28T10:59:04.285Z,56.15
2017-07-28T10:59:29.758Z,57.03
2017-07-28T10:59:55.214Z,56.73
2017-07-28T11:00:20.707Z,57.12
2017-07-28T11:00:46.209Z,57.29
2017-07-28T11:01:11.657Z,57.57
2017-07-28T11:01:37.122Z,57.96
2017-07-28T11:02:02.579Z,58.15